Terminal Aerodrome Forecast
Issued by NWS Goodland, KS

Home | Current Version | Previous Version | Text Only | Print | Product List | Glossary On
Versions: 1 2 3 4 5 6 7 8 9 10 11 12 13
000
FTUS43 KGLD 221641 AAA
TAFGLD
TAF AMD
KGLD 221641Z 2217/2312 36010KT P6SM SCT060
     FM230000 VRB05KT P6SM SKC
     FM231000 VRB05KT 4SM BR SCT005=

USA.gov is the U.S. government's official web portal to all federal, state and local government web resources and services.